Barnard, KS (67418)

3:42 PM CDT on July 06, 2015 (GMT -0500)
Center Township | | Change Station
CLOSE
Current Station
Personal Weather Station
Location: BELOIT, KS
Elevation: 1504 ft
Nearby Weather Stations

Elev 1504 ft 39.33 °N, 98.15 °W | Updated 29 seconds ago

Overcast
Overcast
72.6 °F
Feels Like 72.6 °F
N
11.0
Wind Variable Wind from NNW
Gusts 22.0 mph

Today
High -- | Low -- °F
--% Chance of Precip.
Yesterday
High -- | Low -- °F
Precip. -- in
6:12 AM 9:01 PM
Waning Gibbous, 72% visible
Pressure 29.91 in
Visibility 10.0 miles
Clouds Mostly Cloudy 1200 ft
Mostly Cloudy 2100 ft
Overcast 2600 ft
Dew Point 71 °F
Humidity 94%
Rainfall 0.30 in
Snow Depth Not available.
UV 3 out of 12
Pollen 2.40 out of 12
Air Quality Not available.
Flu Activity Not available.
SPECI KCNK 062036Z AUTO 36011KT 10SM BKN012 BKN021 OVC026 22/21 A2991 RMK AO2 RAE04 P0000 T02220211

More Conditions Fewer Conditions

Pressure 29.91 in
Visibility 10.0 miles
Clouds Mostly Cloudy 1200 ft
Mostly Cloudy 2100 ft
Overcast 2600 ft
Dew Point 71 °F
Humidity 94%
Rainfall 0.30 in
Snow Depth Not available.
UV 3 out of 12
Pollen 2.40 out of 12
Air Quality Not available.
Flu Activity Not available.
SPECI KCNK 062036Z AUTO 36011KT 10SM BKN012 BKN021 OVC026 22/21 A2991 RMK AO2 RAE04 P0000 T02220211

More Conditions Fewer Conditions

10-Day Weather Forecast

×

Almanac

Astronomy

Jul. 06, 2015 Rise Set
Actual Time
Civil Twilight
Nautical Twilight
Astronomical Twilight
Moon
Length of Visible Light
Length of Day
Tomorrow will be .
, % of the Moon is Illuminated

Today's Extremes

State Highs State Lows

Community

WunderPhotos

Upload Photos

1,835,638 photos uploaded!

WunderBlogs® & News

Nearby

Air Quality

  Air Quality AQ Index Pollutant
Not available.

Snow Depth

Station Depth Elevation

Earthquake Activity

City Distance Mag. Time & Date
Minimum magnitude displayed is 2.5.

Coastal Water Temperatures

Place Temperature

Stations

Nearby Weather Stations

Station Location Temp. Windchill Dew Point Humidity Wind Precip. Elev Updated Type